Time;durP1;ratioP1;P1;durP2;ratioP2;P2;SDS_P1;SDS_P2;PMS_P1;PMS_P2;Temp;Humidity;BMP_temperature;BMP_pressure;BME280_temperature;BME280_humidity;BME280_pressure;Samples;Min_cycle;Max_cycle;Signal;HPM_P1;HPM_P2
2021/05/06 00:01:32;;;;;;;3.10;2.90;;;5.40;99.90;;;6.22;79.16;97550.59;5184430;28;20399;-65
2021/05/06 00:04:35;;;;;;;3.20;3.00;;;5.40;99.90;;;6.23;80.31;97547.28;5186218;28;20222;-65
2021/05/06 00:07:40;;;;;;;3.30;3.10;;;5.40;99.90;;;6.21;80.20;97543.78;5185908;28;20305;-65
2021/05/06 00:30:32;;;;;;;3.47;3.27;;;5.30;99.90;;;6.15;80.88;97532.31;5184851;28;20191;-66
2021/05/06 00:33:05;;;;;;;3.40;2.93;;;5.40;99.90;;;6.20;80.33;97526.78;5184985;28;20226;-65
2021/05/06 00:35:37;;;;;;;3.10;2.90;;;5.40;99.90;;;6.19;80.73;97525.03;5185451;28;20582;-65
2021/05/06 00:38:15;;;;;;;3.57;3.30;;;5.40;99.90;;;6.19;80.20;97524.16;5184916;28;20749;-65
2021/05/06 00:40:59;;;;;;;3.27;3.00;;;5.40;99.90;;;6.19;79.84;97514.88;5184846;28;20696;-65
2021/05/06 00:43:58;;;;;;;3.60;3.30;;;5.40;99.90;;;6.21;79.26;97517.50;5185194;28;20209;-64
2021/05/06 00:55:20;;;;;;;3.40;3.17;;;5.20;99.90;;;6.07;80.22;97512.38;5188030;23;20756;-66
2021/05/06 00:58:06;;;;;;;3.33;3.03;;;5.20;99.90;;;6.08;81.19;97506.53;5172486;28;20700;-65
2021/05/06 01:01:06;;;;;;;3.40;3.20;;;5.30;99.90;;;6.16;80.61;97496.03;5179195;28;20309;-65
2021/05/06 01:03:51;;;;;;;3.53;3.23;;;5.40;99.90;;;6.21;80.67;97499.72;5184531;28;20713;-66
2021/05/06 01:06:25;;;;;;;3.53;3.30;;;5.50;99.90;;;6.38;80.23;97486.56;5184877;28;20203;-65
2021/05/06 01:09:01;;;;;;;3.97;3.67;;;5.60;99.90;;;6.34;80.96;97479.50;5184713;28;20205;-66
2021/05/06 01:11:38;;;;;;;4.13;3.83;;;5.60;99.90;;;6.35;81.32;97477.84;5184422;28;20206;-66
2021/05/06 01:14:10;;;;;;;4.27;3.97;;;5.60;99.90;;;6.48;80.05;97475.34;5170654;28;20720;-66
2021/05/06 01:16:44;;;;;;;5.03;4.53;;;5.70;99.90;;;6.45;80.68;97463.31;5184163;28;20194;-66
2021/05/06 01:19:16;;;;;;;4.40;4.00;;;5.70;99.90;;;6.47;80.05;97471.94;5184839;28;20207;-65
2021/05/06 01:21:49;;;;;;;4.53;4.20;;;5.80;99.90;;;6.46;81.22;97481.97;5184796;28;20198;-66
2021/05/06 01:24:22;;;;;;;3.80;3.57;;;5.70;99.90;;;6.56;79.19;97481.81;5184234;28;20226;-66
2021/05/06 01:27:00;;;;;;;4.00;3.70;;;5.90;99.90;;;6.49;79.91;97474.56;5184087;28;20195;-65
2021/05/06 01:29:36;;;;;;;4.00;3.70;;;5.80;99.90;;;6.65;78.07;97482.41;5183806;28;20224;-66
2021/05/06 01:32:17;;;;;;;4.57;4.10;;;5.80;99.90;;;6.70;77.57;97475.97;5184182;28;20212;-66
2021/05/06 01:34:54;;;;;;;3.67;3.47;;;5.90;99.90;;;6.61;77.98;97470.31;5184447;28;20222;-66
2021/05/06 01:37:32;;;;;;;4.33;4.00;;;5.90;99.90;;;6.61;78.09;97475.38;5184775;28;20234;-66
2021/05/06 01:40:24;;;;;;;4.00;3.70;;;5.80;99.90;;;6.58;78.14;97471.75;5186272;28;20682;-65
2021/05/06 01:43:00;;;;;;;4.33;3.50;;;5.80;99.90;;;6.48;78.75;97477.88;5188453;28;20233;-66
2021/05/06 01:46:08;;;;;;;3.77;3.47;;;5.70;99.90;;;6.46;79.31;97471.81;5188119;28;20755;-65
2021/05/06 01:49:02;;;;;;;4.80;4.03;;;5.70;99.90;;;6.64;77.15;97465.44;5188291;28;20199;-66
2021/05/06 01:57:37;;;;;;;4.07;3.77;;;6.00;99.90;;;6.67;77.04;97454.59;5188162;28;20202;-66
2021/05/06 02:00:15;;;;;;;3.67;3.33;;;5.90;99.90;;;6.71;76.42;97465.03;5187737;28;20214;-65
2021/05/06 02:02:48;;;;;;;3.90;3.60;;;6.00;99.90;;;6.69;77.32;97464.03;5187766;28;20697;-65
2021/05/06 02:05:21;;;;;;;3.97;3.67;;;5.90;99.90;;;6.87;76.69;97455.88;5188338;28;20226;-65
2021/05/06 02:07:54;;;;;;;4.00;3.70;;;6.00;99.90;;;6.80;76.46;97468.97;5187535;28;20198;-65
2021/05/06 02:10:28;;;;;;;3.40;3.20;;;6.00;99.90;;;6.69;77.71;97469.13;5188133;28;20195;-66
2021/05/06 02:13:00;;;;;;;4.17;3.97;;;6.00;99.90;;;6.69;77.48;97469.13;5187344;28;20194;-66
2021/05/06 02:15:36;;;;;;;3.90;3.50;;;6.00;99.90;;;6.77;78.20;97462.00;5187381;28;20215;-66
2021/05/06 02:18:08;;;;;;;4.33;4.13;;;6.00;99.90;;;6.95;77.19;97462.31;5188289;28;20202;-66
2021/05/06 02:20:40;;;;;;;3.93;3.63;;;6.00;99.90;;;6.93;75.03;97456.28;5187434;28;20712;-65
2021/05/06 02:23:12;;;;;;;3.50;3.30;;;6.10;99.90;;;6.98;76.04;97454.88;5187818;28;20209;-66
2021/05/06 02:25:45;;;;;;;3.80;3.50;;;6.10;99.90;;;7.02;75.54;97445.81;5186928;28;20248;-66
2021/05/06 02:28:17;;;;;;;5.00;3.93;;;6.20;99.90;;;6.97;76.57;97446.38;5187858;28;20655;-65
2021/05/06 02:30:50;;;;;;;4.10;3.70;;;6.10;99.90;;;6.90;76.56;97451.00;5186813;28;20285;-65
2021/05/06 02:33:22;;;;;;;3.67;3.47;;;6.10;99.90;;;6.98;75.87;97448.19;5187433;28;20696;-65
2021/05/06 02:35:54;;;;;;;4.20;3.80;;;6.10;99.90;;;6.99;75.71;97444.84;5187182;28;20227;-66
2021/05/06 02:38:26;;;;;;;3.83;3.50;;;6.10;99.90;;;6.93;76.27;97459.69;5187787;28;20198;-65
2021/05/06 02:40:59;;;;;;;3.83;3.50;;;6.20;99.90;;;7.16;75.08;97443.38;5186811;28;20218;-64
2021/05/06 02:43:31;;;;;;;4.13;3.83;;;6.30;99.90;;;7.17;75.37;97437.50;5186850;28;20289;-66
2021/05/06 02:46:03;;;;;;;3.93;3.53;;;6.20;99.90;;;7.15;74.35;97428.91;5186911;28;20218;-66
2021/05/06 02:48:35;;;;;;;4.27;3.83;;;6.30;99.90;;;7.11;73.71;97426.06;5187154;28;20622;-66
2021/05/06 02:51:08;;;;;;;4.67;4.20;;;6.30;99.90;;;7.22;73.60;97427.63;5186210;28;20195;-66
2021/05/06 02:53:48;;;;;;;4.53;4.00;;;6.40;99.90;;;7.08;74.78;97424.22;5187079;28;20203;-66
2021/05/06 02:56:28;;;;;;;5.07;3.50;;;6.30;99.90;;;7.06;74.80;97415.59;5187134;28;20644;-66
2021/05/06 02:59:15;;;;;;;3.93;3.53;;;6.20;99.90;;;6.97;75.43;97400.66;5185788;28;20201;-66
2021/05/06 03:04:52;;;;;;;4.20;3.80;;;6.30;99.90;;;7.04;74.02;97406.13;5144128;28;20286;-65
2021/05/06 03:07:27;;;;;;;4.50;4.00;;;6.20;99.90;;;7.06;74.56;97407.13;5143979;28;20711;-65
2021/05/06 03:10:05;;;;;;;4.37;3.60;;;6.20;99.90;;;6.96;74.08;97405.66;5167624;28;20720;-65
2021/05/06 03:12:58;;;;;;;4.13;3.83;;;6.20;99.90;;;7.10;73.47;97401.47;5186074;28;20293;-66
2021/05/06 03:24:21;;;;;;;3.90;3.60;;;6.30;99.90;;;7.06;74.15;97400.38;5186424;28;20308;-65
2021/05/06 03:26:54;;;;;;;4.27;3.87;;;6.30;99.90;;;7.07;73.24;97407.22;5186203;28;20517;-66
2021/05/06 03:29:31;;;;;;;5.37;3.90;;;6.20;99.90;;;6.97;73.77;97399.78;5186279;28;20191;-65
2021/05/06 03:32:23;;;;;;;4.10;3.70;;;6.20;99.90;;;7.00;73.28;97402.53;5186181;28;20190;-66
2021/05/06 03:35:11;;;;;;;4.63;4.23;;;6.20;99.90;;;7.11;73.47;97408.28;5186062;28;20225;-65
2021/05/06 03:43:37;;;;;;;3.93;3.63;;;6.30;99.90;;;7.02;74.01;97408.59;5186106;28;20198;-65
2021/05/06 03:46:33;;;;;;;4.33;4.03;;;6.30;99.90;;;7.03;74.23;97404.38;5185786;28;20297;-65
2021/05/06 03:49:35;;;;;;;3.97;3.70;;;6.20;99.90;;;7.04;73.74;97403.59;5186355;28;20202;-66
2021/05/06 04:03:43;;;;;;;4.47;3.90;;;6.50;99.90;;;7.25;72.48;97424.41;5184446;28;20202;-66
2021/05/06 04:15:11;;;;;;;4.30;3.93;;;6.40;99.90;;;7.18;76.19;97408.78;5181652;28;20221;-65
2021/05/06 04:17:53;;;;;;;5.03;3.87;;;6.50;99.90;;;6.96;77.55;97403.13;5185263;28;20199;-66
2021/05/06 04:26:11;;;;;;;5.30;4.13;;;6.20;99.90;;;6.70;81.81;97381.16;5185255;28;20195;-66
2021/05/06 04:37:07;;;;;;;4.33;3.93;;;6.10;99.90;;;6.64;83.94;97388.34;5185532;28;20564;-66
2021/05/06 04:39:48;;;;;;;4.27;3.90;;;6.10;99.90;;;6.64;85.01;97384.16;5184976;28;20190;-66
2021/05/06 04:54:22;;;;;;;5.53;4.93;;;6.20;99.90;;;6.70;84.89;97374.41;5184492;28;20716;-66
2021/05/06 04:57:06;;;;;;;5.43;5.03;;;6.20;99.90;;;6.74;84.98;97375.47;5184259;28;20205;-65
2021/05/06 05:05:19;;;;;;;4.07;3.67;;;6.40;99.90;;;7.28;82.15;97366.13;5184632;28;20228;-64
2021/05/06 05:07:55;;;;;;;5.03;4.60;;;6.50;99.90;;;7.29;81.95;97356.03;5184692;28;20198;-66
2021/05/06 05:10:40;;;;;;;3.70;3.40;;;6.60;99.90;;;7.36;81.27;97363.28;5184489;28;20198;-65
2021/05/06 05:19:30;;;;;;;4.53;3.80;;;7.10;99.90;;;8.26;74.19;97354.16;5175434;28;20910;-65
2021/05/06 05:24:58;;;;;;;5.50;4.37;;;7.40;99.90;;;8.12;75.36;97349.13;5184600;28;20226;-63
2021/05/06 05:27:31;;;;;;;4.60;4.20;;;7.50;99.90;;;8.15;75.23;97352.66;5184249;28;20294;-64
2021/05/06 05:30:05;;;;;;;5.17;4.10;;;7.40;99.90;;;8.24;74.83;97337.91;5184135;28;20212;-64
2021/05/06 05:32:38;;;;;;;4.47;4.07;;;7.50;99.90;;;8.22;74.53;97334.41;5183577;28;20194;-64
2021/05/06 05:35:15;;;;;;;5.20;4.37;;;7.50;99.90;;;8.39;75.14;97333.75;5184294;28;20256;-65
2021/05/06 05:37:53;;;;;;;3.77;3.47;;;7.70;99.90;;;8.80;75.21;97332.63;5183808;28;20199;-65
2021/05/06 05:40:31;;;;;;;5.03;3.80;;;8.00;99.90;;;9.05;71.21;97328.88;5184463;28;20716;-66
2021/05/06 05:43:12;;;;;;;5.20;4.27;;;8.00;99.90;;;9.27;70.13;97321.59;5182266;28;20199;-66
2021/05/06 05:54:33;;;;;;;6.93;3.73;;;8.40;99.90;;;9.31;69.47;97323.50;5163997;28;20238;-65
2021/05/06 05:57:09;;;;;;;3.87;3.47;;;8.40;99.90;;;9.19;69.09;97320.31;5178745;28;20207;-64
2021/05/06 05:59:42;;;;;;;4.50;4.10;;;8.30;99.90;;;9.16;69.52;97323.56;5183758;28;20281;-65
2021/05/06 06:02:14;;;;;;;4.33;3.93;;;8.20;99.90;;;9.16;70.87;97315.03;5184388;28;20222;-64
2021/05/06 06:04:46;;;;;;;5.23;3.73;;;8.30;99.90;;;9.13;70.55;97317.41;5184157;28;20223;-66
2021/05/06 06:07:18;;;;;;;3.70;3.40;;;8.30;99.90;;;9.20;70.84;97317.81;5184144;28;20203;-65
2021/05/06 06:09:51;;;;;;;3.83;3.47;;;8.30;99.90;;;9.23;70.36;97309.47;5183717;28;20293;-66
2021/05/06 06:12:23;;;;;;;5.60;4.43;;;8.30;99.90;;;9.24;71.53;97303.56;5182150;28;20199;-67
2021/05/06 06:15:00;;;;;;;5.60;3.83;;;8.30;99.90;;;9.35;70.16;97304.13;5182137;28;20599;-66
2021/05/06 06:17:37;;;;;;;4.57;3.77;;;8.40;99.90;;;9.27;70.02;97308.84;5182890;28;20202;-66
2021/05/06 06:20:11;;;;;;;4.07;3.70;;;8.40;99.90;;;9.29;70.43;97302.13;5182302;28;20689;-65
2021/05/06 06:22:43;;;;;;;4.10;3.73;;;8.40;99.90;;;9.27;70.22;97301.19;5181820;28;20210;-67
2021/05/06 06:25:15;;;;;;;6.27;3.80;;;8.40;99.90;;;9.29;69.47;97294.47;5182345;28;20218;-66
2021/05/06 06:27:47;;;;;;;4.10;3.80;;;8.40;99.90;;;9.19;70.51;97297.34;5185028;28;20211;-67
2021/05/06 06:30:21;;;;;;;4.03;3.73;;;8.30;99.90;;;9.13;70.40;97291.91;5185851;28;20203;-67
2021/05/06 06:32:54;;;;;;;6.13;4.03;;;8.20;99.90;;;8.98;70.90;97307.25;5185314;28;20570;-66
2021/05/06 06:35:26;;;;;;;4.27;3.57;;;8.20;99.90;;;8.95;72.11;97302.88;5183987;28;20233;-65
2021/05/06 06:37:58;;;;;;;6.07;3.70;;;8.20;99.90;;;8.92;72.55;97310.34;5184410;28;20662;-66
2021/05/06 06:40:30;;;;;;;7.47;4.00;;;8.10;99.90;;;8.80;72.72;97296.94;5185335;28;20253;-65
2021/05/06 06:43:07;;;;;;;4.00;3.60;;;8.10;99.90;;;8.86;74.23;97306.59;5178920;28;20277;-66
2021/05/06 06:45:40;;;;;;;4.40;3.90;;;8.10;99.90;;;8.84;74.31;97298.00;5184935;28;20214;-67
2021/05/06 06:48:13;;;;;;;4.77;4.33;;;8.10;99.90;;;8.84;73.58;97293.75;5184870;28;20203;-65
2021/05/06 06:50:45;;;;;;;4.10;3.70;;;8.00;99.90;;;8.79;74.22;97297.75;5185278;28;20202;-66
2021/05/06 06:53:17;;;;;;;3.83;3.53;;;8.00;99.90;;;8.77;73.79;97301.88;5184769;28;20199;-66
2021/05/06 06:55:49;;;;;;;5.60;3.60;;;8.00;99.90;;;8.61;73.93;97291.63;5184593;28;20229;-66
2021/05/06 06:58:32;;;;;;;4.60;3.73;;;7.90;99.90;;;8.77;71.45;97291.69;5185300;28;20198;-66
2021/05/06 07:01:07;;;;;;;4.63;4.00;;;8.00;99.90;;;8.68;73.35;97296.28;5177140;28;20221;-67
2021/05/06 07:03:39;;;;;;;3.43;3.13;;;8.00;99.90;;;8.66;74.50;97297.88;5183958;28;20197;-66
2021/05/06 07:06:11;;;;;;;3.97;3.47;;;8.00;99.90;;;8.64;74.72;97294.34;5184914;28;20313;-67
2021/05/06 07:08:46;;;;;;;4.87;3.97;;;8.00;99.90;;;8.62;75.60;97295.97;5184856;28;20194;-66
2021/05/06 07:11:18;;;;;;;4.33;3.93;;;7.90;99.90;;;8.53;75.35;97297.19;5184437;28;20249;-65
2021/05/06 07:13:50;;;;;;;5.83;4.20;;;7.90;99.90;;;8.49;75.10;97295.25;5184486;28;20198;-67
2021/05/06 07:16:23;;;;;;;4.13;3.67;;;7.90;99.90;;;8.56;74.62;97297.38;5184962;28;20570;-66
2021/05/06 07:18:56;;;;;;;4.10;3.70;;;7.90;99.90;;;8.56;75.59;97287.19;5184543;28;20272;-66
2021/05/06 07:21:29;;;;;;;3.77;3.47;;;7.90;99.90;;;8.60;75.87;97275.47;5182568;28;20776;-66
2021/05/06 07:24:01;;;;;;;4.27;3.70;;;7.90;99.90;;;8.69;75.73;97282.75;5178868;28;20222;-66
2021/05/06 07:26:36;;;;;;;5.93;3.90;;;7.90;99.90;;;8.71;75.28;97270.97;5177449;28;20207;-66
2021/05/06 07:29:14;;;;;;;4.40;4.00;;;8.00;99.90;;;8.74;75.98;97276.25;5180430;28;20234;-66
2021/05/06 07:31:50;;;;;;;4.33;3.93;;;8.00;99.90;;;8.75;76.02;97276.31;5180636;28;20603;-66
2021/05/06 07:34:25;;;;;;;4.07;3.80;;;8.10;99.90;;;8.80;76.28;97290.19;5196814;28;20609;-66
2021/05/06 07:36:59;;;;;;;5.40;4.27;;;8.10;99.90;;;8.75;75.61;97285.63;5183295;28;20202;-66
2021/05/06 07:39:33;;;;;;;4.80;3.90;;;8.10;99.90;;;8.80;74.91;97286.75;5186116;28;20261;-66
2021/05/06 07:42:07;;;;;;;4.10;3.53;;;8.10;99.90;;;8.80;74.88;97289.31;5182708;28;20566;-66
2021/05/06 07:44:41;;;;;;;4.00;3.60;;;8.10;99.90;;;8.87;74.43;97283.78;5181036;28;20229;-66
2021/05/06 07:47:16;;;;;;;5.13;3.97;;;8.10;99.90;;;8.88;74.08;97284.63;5191803;28;20202;-66
2021/05/06 07:49:51;;;;;;;4.93;3.90;;;8.10;99.90;;;8.92;73.65;97276.34;5187321;28;20202;-65
2021/05/06 07:52:27;;;;;;;3.97;3.53;;;8.10;99.90;;;8.96;74.16;97281.72;5197630;28;20256;-67
2021/05/06 07:55:03;;;;;;;4.17;3.77;;;8.10;99.90;;;9.03;74.44;97285.44;5183433;28;20234;-67
2021/05/06 07:57:36;;;;;;;4.43;3.63;;;8.20;99.90;;;9.08;73.35;97283.16;5191888;28;20216;-67
2021/05/06 08:00:12;;;;;;;4.00;3.60;;;8.20;99.90;;;9.11;72.72;97270.56;5196949;28;20202;-68
2021/05/06 08:02:47;;;;;;;3.97;3.53;;;8.20;99.90;;;9.17;73.49;97266.66;5189639;28;20218;-67
2021/05/06 08:05:20;;;;;;;4.37;3.43;;;8.30;99.90;;;9.25;72.28;97270.50;5163767;28;20222;-68
2021/05/06 08:07:53;;;;;;;4.63;4.13;;;8.30;99.90;;;9.28;72.10;97263.81;5172415;28;20257;-67
2021/05/06 08:10:26;;;;;;;4.37;3.57;;;8.30;99.90;;;9.25;72.24;97264.53;5186940;28;20202;-68
2021/05/06 08:13:02;;;;;;;4.57;4.13;;;8.40;99.90;;;9.27;72.31;97265.50;5182393;28;20567;-65
2021/05/06 08:15:34;;;;;;;3.90;3.60;;;8.40;99.90;;;9.32;73.04;97268.25;5184462;28;20253;-68
2021/05/06 08:18:07;;;;;;;4.20;3.67;;;8.50;99.90;;;9.52;71.33;97266.75;5196839;28;20198;-68
2021/05/06 08:20:41;;;;;;;4.87;3.77;;;8.60;99.90;;;9.53;71.33;97274.50;5191025;28;20214;-66
2021/05/06 08:23:13;;;;;;;5.50;4.27;;;8.70;99.90;;;9.57;71.15;97265.31;5190529;28;20204;-65
2021/05/06 08:25:46;;;;;;;5.60;4.03;;;8.70;99.90;;;9.59;72.37;97274.81;5180764;28;20230;-67
2021/05/06 08:28:18;;;;;;;4.10;3.70;;;8.70;99.90;;;9.64;70.39;97277.56;5187124;28;20296;-67
2021/05/06 08:30:50;;;;;;;4.37;3.97;;;8.80;99.90;;;9.67;71.25;97281.19;5185777;28;20289;-65
2021/05/06 08:33:23;;;;;;;4.07;3.77;;;8.80;99.90;;;9.74;70.83;97279.81;5190793;28;20203;-66
2021/05/06 08:35:55;;;;;;;4.57;3.77;;;8.80;99.90;;;9.74;71.51;97277.25;5198393;28;20245;-67
2021/05/06 08:38:27;;;;;;;7.40;5.47;;;8.90;99.90;;;9.84;70.58;97276.94;5187284;28;20206;-67
2021/05/06 08:41:00;;;;;;;4.60;4.20;;;8.90;99.90;;;9.82;71.53;97268.31;5182415;28;20253;-66
2021/05/06 08:43:35;;;;;;;4.00;3.60;;;8.90;99.90;;;9.92;69.40;97264.53;5185785;28;20206;-66
2021/05/06 08:46:07;;;;;;;5.40;3.50;;;9.00;99.90;;;10.09;67.87;97257.69;5182213;28;20194;-66
2021/05/06 08:49:02;;;;;;;4.67;3.43;;;9.10;99.90;;;10.11;68.08;97256.97;5181611;28;20206;-63
2021/05/06 08:51:35;;;;;;;3.60;3.30;;;9.10;99.90;;;10.02;67.98;97255.66;5187921;28;20211;-66
2021/05/06 08:54:08;;;;;;;5.23;3.70;;;9.10;99.90;;;10.05;68.06;97256.69;5191189;28;20457;-66
2021/05/06 08:56:40;;;;;;;5.07;4.23;;;9.10;99.90;;;10.04;68.29;97243.84;5181831;28;20195;-66
2021/05/06 08:59:12;;;;;;;6.10;4.00;;;9.10;99.90;;;10.11;68.30;97246.78;5190315;28;20203;-66
2021/05/06 09:01:45;;;;;;;5.70;3.97;;;9.20;99.90;;;10.15;68.39;97242.69;5181021;28;20218;-65
2021/05/06 09:04:18;;;;;;;6.37;3.97;;;9.10;99.90;;;10.09;67.31;97252.59;5185875;28;20245;-66
2021/05/06 09:06:55;;;;;;;4.80;3.90;;;9.10;99.90;;;10.05;67.72;97260.91;5184496;28;20710;-65
2021/05/06 09:09:29;;;;;;;3.87;3.37;;;9.10;99.90;;;10.04;68.32;97254.91;5182392;28;20205;-65
2021/05/06 09:12:04;;;;;;;4.37;3.60;;;9.00;99.90;;;10.01;68.59;97259.00;5182300;28;20203;-65
2021/05/06 09:14:40;;;;;;;3.60;3.30;;;9.00;99.90;;;10.04;68.02;97256.59;5185846;28;20650;-66
2021/05/06 09:17:26;;;;;;;4.43;3.50;;;9.10;99.90;;;10.01;68.53;97264.97;5182171;28;20217;-65
2021/05/06 09:20:13;;;;;;;4.63;3.67;;;9.10;99.90;;;10.05;68.75;97268.59;5182236;28;20213;-66
2021/05/06 09:22:48;;;;;;;5.20;3.60;;;9.10;99.90;;;10.12;67.79;97263.81;5185682;28;20226;-66
2021/05/06 09:25:33;;;;;;;4.03;3.37;;;9.20;99.90;;;10.12;67.98;97261.28;5192984;28;20304;-64
2021/05/06 09:28:16;;;;;;;5.13;3.60;;;9.20;99.90;;;10.16;67.14;97259.78;5180339;28;20230;-66
2021/05/06 09:30:54;;;;;;;4.73;3.53;;;9.20;99.90;;;10.13;67.06;97254.53;5200599;28;20285;-62
2021/05/06 09:33:35;;;;;;;3.90;3.50;;;9.20;99.90;;;10.13;68.05;97257.06;5187221;28;20595;-64
2021/05/06 09:36:14;;;;;;;4.60;3.57;;;9.20;99.90;;;10.19;68.00;97248.81;5182805;28;20623;-66
2021/05/06 09:38:48;;;;;;;5.17;3.60;;;9.20;99.90;;;10.17;68.19;97256.41;5189683;28;20205;-66
2021/05/06 09:41:24;;;;;;;5.00;3.37;;;9.20;99.90;;;10.12;67.57;97250.19;5194501;28;20219;-65
2021/05/06 09:44:08;;;;;;;5.67;3.90;;;9.20;99.90;;;10.12;68.23;97251.06;5183173;28;20226;-67
2021/05/06 09:46:57;;;;;;;5.93;3.83;;;9.20;99.90;;;10.08;67.28;97250.84;5191449;28;20248;-66
2021/05/06 09:49:39;;;;;;;4.83;3.60;;;9.20;99.90;;;10.08;68.06;97248.31;5183479;28;20206;-65
2021/05/06 09:52:12;;;;;;;5.40;4.00;;;9.20;99.90;;;10.07;67.67;97239.78;5180690;28;20205;-66
2021/05/06 09:54:49;;;;;;;3.83;3.53;;;9.20;99.90;;;10.02;68.87;97236.13;5181824;28;20313;-66
2021/05/06 09:57:27;;;;;;;4.23;3.50;;;9.20;99.90;;;10.01;69.53;97228.38;5188596;28;20204;-65
2021/05/06 10:00:16;;;;;;;4.83;3.73;;;9.10;99.90;;;9.98;69.75;97238.44;5180309;28;20194;-66
2021/05/06 10:02:48;;;;;;;8.13;4.20;;;9.10;99.90;;;10.01;69.75;97238.56;5193721;28;20308;-66
2021/05/06 10:05:41;;;;;;;5.73;3.70;;;9.10;99.90;;;10.04;70.65;97241.28;5184648;28;20297;-66
2021/05/06 10:08:16;;;;;;;7.07;4.03;;;9.10;99.90;;;10.03;70.61;97247.19;5189021;28;20205;-66
2021/05/06 10:10:48;;;;;;;4.43;4.03;;;9.20;99.90;;;10.03;70.39;97247.19;5195053;28;20691;-66
2021/05/06 10:13:21;;;;;;;7.37;3.83;;;9.20;99.90;;;10.14;68.24;97244.38;5185054;28;20199;-67
2021/05/06 10:15:53;;;;;;;6.10;3.90;;;9.20;99.90;;;10.23;67.73;97243.06;5211075;22;21587;-62
2021/05/06 10:18:25;;;;;;;4.38;3.67;;;9.20;99.90;;;10.20;68.84;97236.13;5201602;28;20200;-61
2021/05/06 10:20:57;;;;;;;5.88;3.35;;;9.30;99.90;;;10.21;68.80;97237.88;5203316;28;20224;-60
2021/05/06 10:23:30;;;;;;;3.87;3.47;;;9.30;99.90;;;10.21;68.45;97230.19;5198230;28;20194;-61
2021/05/06 10:26:03;;;;;;;5.22;4.00;;;9.30;99.90;;;10.24;68.76;97238.00;5204851;28;20221;-61
2021/05/06 10:28:35;;;;;;;4.20;3.80;;;9.30;99.90;;;10.23;68.84;97236.25;5201041;28;20692;-60
2021/05/06 10:31:09;;;;;;;7.75;3.70;;;9.30;99.90;;;10.33;67.84;97225.75;5203270;28;20197;-59
2021/05/06 10:33:44;;;;;;;4.22;3.40;;;9.40;99.90;;;10.32;67.67;97217.97;5205078;28;20233;-60
2021/05/06 10:36:18;;;;;;;6.22;3.65;;;9.40;99.90;;;10.33;68.06;97223.19;5203321;28;20243;-60
2021/05/06 10:38:51;;;;;;;5.97;3.73;;;9.40;99.90;;;10.33;68.51;97220.63;5204404;28;20293;-60
2021/05/06 10:41:29;;;;;;;4.87;4.40;;;9.40;99.90;;;10.32;67.76;97215.44;5201226;28;20741;-58
2021/05/06 10:44:03;;;;;;;4.88;4.03;;;9.40;99.90;;;10.35;68.25;97206.22;5202380;28;20214;-60
2021/05/06 10:46:59;;;;;;;5.43;4.07;;;9.40;99.90;;;10.37;67.52;97214.84;5204484;28;20213;-60
2021/05/06 10:50:10;;;;;;;5.50;3.77;;;9.40;99.90;;;10.44;67.59;97207.47;5199659;28;20248;-61
2021/05/06 10:52:49;;;;;;;6.17;4.03;;;9.50;99.90;;;10.57;66.18;97200.44;5202525;28;20198;-61
2021/05/06 10:55:46;;;;;;;5.43;3.80;;;9.60;99.90;;;10.57;66.59;97194.47;5192704;28;20672;-59
2021/05/06 10:58:39;;;;;;;4.22;3.50;;;9.60;99.90;;;10.53;67.23;97192.56;5206354;28;20248;-62
2021/05/06 11:01:24;;;;;;;3.97;3.45;;;9.70;99.90;;;10.65;66.19;97205.06;5206153;28;20649;-61
2021/05/06 11:04:08;;;;;;;4.72;3.78;;;9.70;99.90;;;10.65;67.24;97192.28;5205647;28;20229;-61
2021/05/06 11:06:43;;;;;;;4.72;3.92;;;9.70;99.90;;;10.73;66.34;97186.72;5206982;28;20218;-61
2021/05/06 11:09:51;;;;;;;4.47;3.33;;;9.70;99.90;;;10.83;65.02;97182.88;5200752;28;20233;-62
2021/05/06 11:12:42;;;;;;;4.03;3.03;;;9.80;99.90;;;10.86;65.75;97180.44;5199539;28;20628;-60
2021/05/06 11:15:31;;;;;;;4.38;2.90;;;9.80;99.90;;;10.82;66.21;97179.44;5205758;28;20212;-61
2021/05/06 11:18:06;;;;;;;3.13;2.63;;;9.80;99.90;;;10.99;64.44;97174.22;5195116;28;20212;-62
2021/05/06 11:20:55;;;;;;;2.83;2.25;;;9.90;99.90;;;10.97;63.96;97160.47;5211121;28;20190;-61
2021/05/06 11:23:35;;;;;;;2.72;2.50;;;10.00;99.90;;;10.89;64.06;97169.50;5206233;28;20194;-61
2021/05/06 11:26:14;;;;;;;2.47;2.28;;;9.90;99.90;;;10.82;64.13;97169.22;5204611;28;20301;-59
2021/05/06 11:28:50;;;;;;;3.00;1.92;;;9.90;99.90;;;10.90;62.79;97167.00;5202014;28;20205;-61
2021/05/06 11:31:46;;;;;;;2.50;2.30;;;9.90;99.90;;;10.91;64.17;97152.53;5203948;28;20673;-61
2021/05/06 11:34:41;;;;;;;2.58;2.47;;;10.00;99.90;;;10.89;64.27;97143.91;5205109;28;20681;-59
2021/05/06 11:37:20;;;;;;;2.33;2.10;;;9.90;99.90;;;11.03;63.16;97142.84;5205422;28;20225;-59
2021/05/06 11:39:57;;;;;;;2.70;2.50;;;10.00;99.90;;;10.92;64.22;97139.81;5205476;28;20402;-61
2021/05/06 11:42:37;;;;;;;2.10;2.00;;;10.00;99.90;;;11.03;63.76;97137.72;5205009;28;20315;-60
2021/05/06 11:45:21;;;;;;;2.30;2.10;;;10.10;99.90;;;11.04;63.05;97134.34;5198417;28;20252;-58
2021/05/06 11:47:57;;;;;;;5.43;2.60;;;10.00;99.90;;;10.98;63.89;97134.09;5205041;28;20201;-62
2021/05/06 11:50:35;;;;;;;7.05;2.65;;;10.10;99.90;;;11.01;63.99;97127.41;5202535;28;20207;-60
2021/05/06 11:53:15;;;;;;;6.25;2.58;;;10.10;99.90;;;11.00;64.56;97124.81;5204449;28;20259;-60
2021/05/06 11:55:49;;;;;;;2.50;2.30;;;10.10;99.90;;;11.08;65.25;97113.22;5204045;28;20217;-59
2021/05/06 11:58:28;;;;;;;2.35;2.15;;;10.10;99.90;;;11.08;65.41;97118.34;5202064;28;20194;-60
2021/05/06 12:01:01;;;;;;;2.22;2.03;;;10.10;99.90;;;11.06;65.55;97112.28;5203991;28;20293;-61
2021/05/06 12:03:37;;;;;;;2.33;2.22;;;10.10;99.90;;;11.04;65.42;97102.00;5205826;28;20629;-56
2021/05/06 12:06:10;;;;;;;2.20;2.00;;;10.10;99.90;;;11.08;66.20;97104.69;5203512;28;20779;-58
2021/05/06 12:08:44;;;;;;;2.72;2.20;;;10.10;99.90;;;11.07;65.96;97103.78;5204840;28;20202;-60
2021/05/06 12:11:17;;;;;;;3.40;3.10;;;10.10;99.90;;;11.07;66.59;97098.69;5203730;28;20223;-61
2021/05/06 12:13:50;;;;;;;4.05;3.47;;;10.10;99.90;;;11.08;67.02;97094.47;5205529;28;20208;-59
2021/05/06 12:16:25;;;;;;;4.68;3.78;;;10.10;99.90;;;10.97;67.93;97094.00;5204806;28;20730;-59
2021/05/06 12:19:07;;;;;;;5.55;4.10;;;10.10;99.90;;;10.94;67.75;97088.75;5203930;28;20575;-60
2021/05/06 12:21:43;;;;;;;3.33;3.13;;;10.10;99.90;;;10.90;69.51;97089.41;5205213;28;20221;-60
2021/05/06 12:24:29;;;;;;;3.05;2.85;;;10.00;99.90;;;10.82;69.13;97087.41;5188673;28;20299;-61
2021/05/06 12:27:16;;;;;;;3.35;2.88;;;10.00;99.90;;;10.93;68.36;97079.31;5204534;28;20716;-60
2021/05/06 12:29:51;;;;;;;3.15;2.95;;;9.90;99.90;;;10.99;67.54;97079.59;5203764;28;20293;-58
2021/05/06 12:32:26;;;;;;;4.57;4.28;;;10.00;99.90;;;10.97;66.91;97063.31;5203716;28;20296;-58
2021/05/06 12:35:01;;;;;;;4.45;3.83;;;10.00;99.90;;;10.86;67.88;97057.75;5204256;28;20206;-59
2021/05/06 12:37:36;;;;;;;3.97;3.67;;;9.90;99.90;;;10.80;68.25;97053.22;5196230;28;20686;-60
2021/05/06 12:40:12;;;;;;;3.10;2.80;;;9.90;99.90;;;10.78;68.48;97049.72;5194765;28;20205;-60
2021/05/06 12:42:44;;;;;;;3.50;3.17;;;9.90;99.90;;;10.81;67.75;97039.63;5198459;28;20275;-59
2021/05/06 12:45:31;;;;;;;4.55;3.58;;;9.90;99.90;;;10.86;67.98;97036.41;5204561;28;20194;-58
2021/05/06 12:48:05;;;;;;;3.40;3.10;;;9.90;99.90;;;10.83;68.60;97030.34;5203465;28;20640;-61
2021/05/06 12:50:38;;;;;;;5.15;3.45;;;9.90;99.90;;;10.82;69.30;97027.75;5200523;28;20640;-57
2021/05/06 12:53:11;;;;;;;3.42;3.22;;;9.80;99.90;;;10.80;69.87;97016.59;5196401;28;20194;-59
2021/05/06 12:55:44;;;;;;;5.32;3.20;;;9.90;99.90;;;10.79;70.81;97015.72;5195182;28;20225;-58
2021/05/06 12:58:19;;;;;;;3.10;2.90;;;9.90;99.90;;;10.83;71.07;97006.47;5203432;28;20198;-57
2021/05/06 13:01:12;;;;;;;3.20;3.00;;;10.00;99.90;;;10.83;72.11;97012.47;5200665;28;20197;-61
2021/05/06 13:03:45;;;;;;;4.03;3.13;;;10.10;99.90;;;10.83;72.60;97002.25;5198455;28;20305;-61
2021/05/06 13:06:17;;;;;;;4.60;3.30;;;10.10;99.90;;;10.91;71.99;97002.56;5215283;28;20257;-61
2021/05/06 13:08:49;;;;;;;3.67;3.38;;;10.10;99.90;;;10.82;73.00;96999.63;5201187;28;20325;-61
2021/05/06 13:11:22;;;;;;;3.45;3.20;;;10.00;99.90;;;10.81;72.88;96998.72;5204041;28;20507;-62
2021/05/06 13:13:56;;;;;;;4.15;3.38;;;10.00;99.90;;;10.67;73.69;96989.59;5204296;28;20208;-62
2021/05/06 13:16:45;;;;;;;4.63;3.25;;;10.00;99.90;;;10.58;74.92;96995.22;5199714;28;20221;-61